createdAt,value
2018-04-19T00:00:18.153Z,99323.25
2018-04-19T00:00:49.725Z,99328.35
2018-04-19T00:01:21.324Z,99325.84
2018-04-19T00:01:52.906Z,99324.95
2018-04-19T00:02:24.516Z,99326.62
2018-04-19T00:02:56.102Z,99327.06
2018-04-19T00:03:27.713Z,99334.75
2018-04-19T00:03:59.307Z,99321.53
2018-04-19T00:04:30.890Z,99326.62
2018-04-19T00:05:02.492Z,99324.50
2018-04-19T00:05:34.128Z,99328.33
2018-04-19T00:06:05.757Z,99327.07
2018-04-19T00:06:37.342Z,99323.22
2018-04-19T00:07:08.946Z,99320.23
2018-04-19T00:07:40.530Z,99323.22
2018-04-19T00:08:12.102Z,99321.09
2018-04-19T00:08:43.710Z,99322.36
2018-04-19T00:09:15.308Z,99332.15
2018-04-19T00:09:46.888Z,99320.24
2018-04-19T00:10:18.490Z,99316.41
2018-04-19T00:10:50.147Z,99317.68
2018-04-19T00:11:21.726Z,99321.52
2018-04-19T00:11:53.365Z,99317.27
2018-04-19T00:12:24.918Z,99312.14
2018-04-19T00:12:56.570Z,99318.08
2018-04-19T00:13:28.168Z,99317.23
2018-04-19T00:13:59.774Z,99320.24
2018-04-19T00:14:31.362Z,99318.52
2018-04-19T00:15:02.961Z,99317.27
2018-04-19T00:15:34.574Z,99319.81
2018-04-19T00:16:06.189Z,99316.83
2018-04-19T00:16:37.802Z,99315.56
2018-04-19T00:17:09.405Z,99317.25
2018-04-19T00:17:41.073Z,99318.52
2018-04-19T00:18:12.662Z,99326.64
2018-04-19T00:18:44.246Z,99320.26
2018-04-19T00:19:15.866Z,99318.52
2018-04-19T00:19:47.473Z,99318.97
2018-04-19T00:20:19.072Z,99322.37
2018-04-19T00:20:50.678Z,99319.41
2018-04-19T00:21:22.290Z,99315.99
2018-04-19T00:21:53.888Z,99317.27
2018-04-19T00:22:25.484Z,99313.45
2018-04-19T00:22:57.113Z,99316.43
2018-04-19T00:23:28.714Z,99311.30
2018-04-19T00:24:00.349Z,99316.44
2018-04-19T00:24:31.928Z,99311.75
2018-04-19T00:25:03.510Z,99311.33
2018-04-19T00:25:35.123Z,99309.19
2018-04-19T00:26:06.714Z,99310.91
2018-04-19T00:26:38.309Z,99313.48
2018-04-19T00:27:09.909Z,99311.33
2018-04-19T00:27:41.513Z,99314.75
2018-04-19T00:28:13.097Z,99312.20
2018-04-19T00:28:44.694Z,99310.48
2018-04-19T00:29:16.299Z,99310.52
2018-04-19T00:29:47.917Z,99310.94
2018-04-19T00:30:19.502Z,99312.22
2018-04-19T00:30:51.072Z,99305.82
2018-04-19T00:31:22.702Z,99310.94
2018-04-19T00:31:54.302Z,99309.66
2018-04-19T00:32:25.881Z,99313.91
2018-04-19T00:32:57.481Z,99313.48
2018-04-19T00:33:29.076Z,99308.82
2018-04-19T00:34:00.684Z,99306.25
2018-04-19T00:34:32.290Z,99309.23
2018-04-19T00:35:03.877Z,99312.22
2018-04-19T00:35:35.490Z,99306.68
2018-04-19T00:36:07.068Z,99302.41
2018-04-19T00:36:38.702Z,99303.72
2018-04-19T00:37:10.292Z,99304.56
2018-04-19T00:37:41.898Z,99304.56
2018-04-19T00:38:13.500Z,99302.86
2018-04-19T00:38:45.082Z,99305.42
2018-04-19T00:39:16.686Z,99303.72
2018-04-19T00:39:48.274Z,99304.56
2018-04-19T00:40:19.848Z,99302.44
2018-04-19T00:40:51.458Z,99302.41
2018-04-19T00:41:23.046Z,99305.39
2018-04-19T00:41:54.678Z,99300.72
2018-04-19T00:42:26.244Z,99300.30
2018-04-19T00:42:57.850Z,99304.14
2018-04-19T00:43:29.458Z,99302.00
2018-04-19T00:44:01.043Z,99301.13
2018-04-19T00:44:32.621Z,99299.87
2018-04-19T00:45:04.226Z,99305.83
2018-04-19T00:45:35.834Z,99301.15
2018-04-19T00:46:07.445Z,99299.02
2018-04-19T00:46:39.024Z,99294.36
2018-04-19T00:47:10.650Z,99295.20
2018-04-19T00:47:42.224Z,99295.61
2018-04-19T00:48:13.806Z,99297.32
2018-04-19T00:48:45.409Z,99296.02
2018-04-19T00:49:16.998Z,99298.58
2018-04-19T00:49:48.577Z,99287.06
2018-04-19T00:50:20.172Z,99293.03
2018-04-19T00:50:51.748Z,99291.33
2018-04-19T00:51:23.334Z,99294.73
2018-04-19T00:51:54.929Z,99287.47
2018-04-19T00:52:26.663Z,99292.97
2018-04-19T00:52:58.255Z,99300.67
2018-04-19T00:53:29.829Z,99292.17
2018-04-19T00:54:01.405Z,99288.35
2018-04-19T00:54:33.010Z,99286.66
2018-04-19T00:55:04.604Z,99295.17
2018-04-19T00:55:36.180Z,99291.36
2018-04-19T00:56:07.765Z,99293.05
2018-04-19T00:56:39.379Z,99293.92
2018-04-19T00:57:10.988Z,99291.34
2018-04-19T00:57:42.622Z,99294.33
2018-04-19T00:58:14.222Z,99291.35
2018-04-19T00:58:45.829Z,99296.05
2018-04-19T00:59:17.432Z,99293.45
2018-04-19T00:59:49.010Z,99288.36
2018-04-19T01:00:20.580Z,99296.03
2018-04-19T01:00:52.162Z,99292.62
2018-04-19T01:01:23.765Z,99289.22
2018-04-19T01:01:55.363Z,99288.34
2018-04-19T01:02:26.950Z,99293.03
2018-04-19T01:02:58.593Z,99291.31
2018-04-19T01:03:30.192Z,99294.73
2018-04-19T01:04:01.798Z,99290.44
2018-04-19T01:04:33.389Z,99286.20
2018-04-19T01:05:04.999Z,99292.57
2018-04-19T01:05:36.585Z,99298.55
2018-04-19T01:06:08.194Z,99295.55
2018-04-19T01:06:39.786Z,99295.58
2018-04-19T01:07:11.366Z,99295.13
2018-04-19T01:07:42.940Z,99288.77
2018-04-19T01:08:14.541Z,99293.04
2018-04-19T01:08:46.136Z,99293.44
2018-04-19T01:09:17.719Z,99295.17
2018-04-19T01:09:49.334Z,99295.59
2018-04-19T01:10:20.985Z,99297.27
2018-04-19T01:10:52.550Z,99293.02
2018-04-19T01:11:24.124Z,99293.46
2018-04-19T01:11:55.696Z,99296.88
2018-04-19T01:12:27.281Z,99288.75
2018-04-19T01:12:58.890Z,99290.88
2018-04-19T01:13:30.562Z,99293.44
2018-04-19T01:14:02.146Z,99291.73
2018-04-19T01:14:33.746Z,99287.05
2018-04-19T01:15:05.329Z,99289.59
2018-04-19T01:15:36.933Z,99287.89
2018-04-19T01:16:08.521Z,99289.59
2018-04-19T01:16:40.128Z,99291.73
2018-04-19T01:17:11.734Z,99290.02
2018-04-19T01:17:43.348Z,99293.45
2018-04-19T01:18:14.955Z,99288.33
2018-04-19T01:18:46.543Z,99292.59
2018-04-19T01:19:18.132Z,99291.77
2018-04-19T01:19:49.733Z,99233.52
2018-04-19T01:20:21.354Z,99289.20
2018-04-19T01:20:52.960Z,99290.90
2018-04-19T01:21:24.558Z,99290.03
2018-04-19T01:21:56.152Z,99284.48
2018-04-19T01:22:27.748Z,99286.64
2018-04-19T01:22:59.358Z,99293.87
2018-04-19T01:23:30.946Z,99293.45
2018-04-19T01:24:02.526Z,99284.48
2018-04-19T01:24:34.114Z,99288.75
2018-04-19T01:25:05.696Z,99285.37
2018-04-19T01:25:37.310Z,99287.47
2018-04-19T01:26:08.898Z,99284.50
2018-04-19T01:26:40.506Z,99287.48
2018-04-19T01:27:12.095Z,99281.93
2018-04-19T01:27:43.678Z,99287.50
2018-04-19T01:28:15.304Z,99290.03
2018-04-19T01:28:46.872Z,99290.89
2018-04-19T01:29:18.479Z,99292.17
2018-04-19T01:29:50.090Z,99284.94
2018-04-19T01:30:21.693Z,99291.34
2018-04-19T01:30:53.282Z,99291.74
2018-04-19T01:31:24.863Z,99287.05
2018-04-19T01:31:56.471Z,99289.61
2018-04-19T01:32:28.068Z,99292.57
2018-04-19T01:32:59.660Z,99293.45
2018-04-19T01:33:31.283Z,99290.88
2018-04-19T01:34:02.867Z,99284.52
2018-04-19T01:34:34.480Z,99291.76
2018-04-19T01:35:06.082Z,99290.03
2018-04-19T01:35:37.673Z,99289.20
2018-04-19T01:36:09.244Z,99288.33
2018-04-19T01:36:40.846Z,99293.02
2018-04-19T01:37:12.435Z,99289.60
2018-04-19T01:37:44.041Z,99288.75
2018-04-19T01:38:15.653Z,99290.88
2018-04-19T01:38:47.306Z,99291.31
2018-04-19T01:39:18.919Z,99285.77
2018-04-19T01:39:50.501Z,99289.19
2018-04-19T01:40:22.110Z,99289.19
2018-04-19T01:40:53.698Z,99287.48
2018-04-19T01:41:25.340Z,99287.90
2018-04-19T01:41:56.950Z,99287.05
2018-04-19T01:42:28.548Z,99284.06
2018-04-19T01:43:00.120Z,99288.77
2018-04-19T01:43:31.708Z,99288.31
2018-04-19T01:44:03.292Z,99289.59
2018-04-19T01:44:34.871Z,99290.04
2018-04-19T01:45:06.463Z,99291.72
2018-04-19T01:45:38.050Z,99289.59
2018-04-19T01:46:09.633Z,99292.17
2018-04-19T01:46:41.394Z,99296.83
2018-04-19T01:47:12.983Z,99290.89
2018-04-19T01:47:44.570Z,99294.28
2018-04-19T01:48:16.173Z,99290.45
2018-04-19T01:48:47.759Z,99292.58
2018-04-19T01:49:19.333Z,99287.91
2018-04-19T01:49:50.916Z,99290.04
2018-04-19T01:50:22.494Z,99286.18
2018-04-19T01:50:54.108Z,99293.00
2018-04-19T01:51:25.718Z,99290.45
2018-04-19T01:51:57.330Z,99284.52
2018-04-19T01:52:28.942Z,99290.47
2018-04-19T01:53:00.550Z,99290.45
2018-04-19T01:53:32.162Z,99292.59
2018-04-19T01:54:03.756Z,99294.30
2018-04-19T01:54:35.356Z,99293.87
2018-04-19T01:55:06.942Z,99283.64
2018-04-19T01:55:38.545Z,99294.71
2018-04-19T01:56:10.198Z,99293.86
2018-04-19T01:56:41.776Z,99288.75
2018-04-19T01:57:13.358Z,99291.31
2018-04-19T01:57:44.943Z,99292.13
2018-04-19T01:58:16.549Z,99292.56
2018-04-19T01:58:48.198Z,99292.13
2018-04-19T01:59:19.806Z,99284.90
2018-04-19T01:59:51.420Z,99290.86
2018-04-19T02:00:23.021Z,99290.46
2018-04-19T02:00:54.616Z,99293.02
2018-04-19T02:01:26.262Z,99290.86
2018-04-19T02:01:57.874Z,99290.88
2018-04-19T02:02:29.454Z,99295.56
2018-04-19T02:03:01.048Z,99295.14
2018-04-19T02:03:32.654Z,99295.12
2018-04-19T02:04:04.262Z,99292.98
2018-04-19T02:04:35.850Z,99293.41
2018-04-19T02:05:07.453Z,99289.17
2018-04-19T02:05:39.052Z,99291.31
2018-04-19T02:06:10.699Z,99298.10
2018-04-19T02:06:42.286Z,99288.75
2018-04-19T02:07:13.897Z,99291.73
2018-04-19T02:07:45.522Z,99291.73
2018-04-19T02:08:17.110Z,99290.02
2018-04-19T02:08:48.714Z,99289.17
2018-04-19T02:09:20.309Z,99287.91
2018-04-19T02:09:51.914Z,99288.31
2018-04-19T02:10:23.498Z,99288.73
2018-04-19T02:10:55.082Z,99286.18
2018-04-19T02:11:26.735Z,99285.75
2018-04-19T02:11:58.349Z,99283.64
2018-04-19T02:12:29.962Z,99287.89
2018-04-19T02:13:01.574Z,99287.47
2018-04-19T02:13:33.162Z,99287.03
2018-04-19T02:14:04.744Z,99284.92
2018-04-19T02:14:36.347Z,99285.33
2018-04-19T02:15:07.978Z,99285.78
2018-04-19T02:15:39.558Z,99285.33
2018-04-19T02:16:11.146Z,99284.48
2018-04-19T02:16:42.751Z,99286.61
2018-04-19T02:17:14.361Z,99284.50
2018-04-19T02:17:45.939Z,99289.61
2018-04-19T02:18:17.552Z,99286.20
2018-04-19T02:18:49.163Z,99288.78
2018-04-19T02:19:20.737Z,99286.65
2018-04-19T02:19:52.332Z,99290.05
2018-04-19T02:20:23.918Z,99287.48
2018-04-19T02:20:55.502Z,99285.35
2018-04-19T02:21:27.075Z,99260.71
2018-04-19T02:21:58.652Z,99286.23
2018-04-19T02:22:30.238Z,99282.39
2018-04-19T02:23:01.842Z,99282.81
2018-04-19T02:23:33.450Z,99280.70
2018-04-19T02:24:05.033Z,99284.94
2018-04-19T02:24:36.638Z,99281.98
2018-04-19T02:25:08.253Z,99282.41
2018-04-19T02:25:39.835Z,99282.83
2018-04-19T02:26:11.469Z,99278.14
2018-04-19T02:26:43.058Z,99280.70
2018-04-19T02:27:14.661Z,99282.80
2018-04-19T02:27:46.264Z,99280.27
2018-04-19T02:28:17.860Z,99279.44
2018-04-19T02:28:49.521Z,99280.72
2018-04-19T02:29:21.098Z,99282.41
2018-04-19T02:29:52.676Z,99275.59
2018-04-19T02:30:24.365Z,99277.30
2018-04-19T02:30:55.954Z,99275.59
2018-04-19T02:31:27.542Z,99279.88
2018-04-19T02:31:59.136Z,99272.62
2018-04-19T02:32:30.722Z,99269.63
2018-04-19T02:33:02.330Z,99278.18
2018-04-19T02:33:33.918Z,99276.05
2018-04-19T02:34:05.566Z,99271.37
2018-04-19T02:34:37.151Z,99273.48
2018-04-19T02:35:08.755Z,99272.64
2018-04-19T02:35:40.376Z,99270.93
2018-04-19T02:36:11.980Z,99276.47
2018-04-19T02:36:43.575Z,99271.34
2018-04-19T02:37:15.185Z,99267.52
2018-04-19T02:37:46.829Z,99272.23
2018-04-19T02:38:18.473Z,99268.39
2018-04-19T02:38:50.050Z,99273.91
2018-04-19T02:39:21.625Z,99271.36
2018-04-19T02:39:53.261Z,99270.08
2018-04-19T02:40:24.870Z,99269.20
2018-04-19T02:40:56.477Z,99273.05
2018-04-19T02:41:28.073Z,99271.77
2018-04-19T02:41:59.687Z,99272.19
2018-04-19T02:42:31.299Z,99268.78
2018-04-19T02:43:02.906Z,99271.34
2018-04-19T02:43:34.514Z,99267.93
2018-04-19T02:44:06.089Z,99273.48
2018-04-19T02:44:37.708Z,99271.34
2018-04-19T02:45:09.311Z,99269.64
2018-04-19T02:45:40.923Z,99267.94
2018-04-19T02:46:12.528Z,99269.64
2018-04-19T02:46:44.134Z,99270.50
2018-04-19T02:47:15.786Z,99269.64
2018-04-19T02:47:47.450Z,99268.80
2018-04-19T02:48:19.044Z,99265.38
2018-04-19T02:48:50.659Z,99265.39
2018-04-19T02:49:22.260Z,99259.42
2018-04-19T02:49:53.832Z,99266.66
2018-04-19T02:50:25.480Z,99265.38
2018-04-19T02:50:57.049Z,99262.84
2018-04-19T02:51:28.655Z,99263.70
2018-04-19T02:52:00.255Z,99259.44
2018-04-19T02:52:31.868Z,99261.16
2018-04-19T02:53:03.530Z,99261.98
2018-04-19T02:53:35.126Z,99264.57
2018-04-19T02:54:06.715Z,99261.56
2018-04-19T02:54:38.299Z,99260.71
2018-04-19T02:55:10.202Z,99261.58
2018-04-19T02:55:41.790Z,99260.71
2018-04-19T02:56:13.390Z,99259.86
2018-04-19T02:56:45.008Z,99259.86
2018-04-19T02:57:16.626Z,99259.45
2018-04-19T02:57:48.206Z,99259.44
2018-04-19T02:58:19.820Z,99261.99
2018-04-19T02:58:51.430Z,99259.42
2018-04-19T02:59:23.022Z,99258.14
2018-04-19T02:59:54.875Z,99256.02
2018-04-19T03:00:26.489Z,99260.70
2018-04-19T03:00:58.074Z,99259.44
2018-04-19T03:01:29.659Z,99257.30
2018-04-19T03:02:01.267Z,99260.69
2018-04-19T03:02:32.850Z,99253.02
2018-04-19T03:03:04.436Z,99259.84
2018-04-19T03:03:36.276Z,99255.58
2018-04-19T03:04:07.882Z,99252.61
2018-04-19T03:04:39.466Z,99253.87
2018-04-19T03:05:11.073Z,99254.72
2018-04-19T03:05:42.650Z,99252.59
2018-04-19T03:06:14.271Z,99260.69
2018-04-19T03:06:45.857Z,99256.00
2018-04-19T03:07:17.443Z,99251.73
2018-04-19T03:07:49.045Z,99253.44
2018-04-19T03:08:20.623Z,99253.02
2018-04-19T03:08:52.262Z,99255.15
2018-04-19T03:09:23.856Z,99250.46
2018-04-19T03:09:55.461Z,99251.73
2018-04-19T03:10:27.049Z,99255.16
2018-04-19T03:10:58.673Z,99250.44
2018-04-19T03:11:30.245Z,99253.43
2018-04-19T03:12:01.834Z,99250.87
2018-04-19T03:12:33.494Z,99250.45
2018-04-19T03:13:05.050Z,99250.41
2018-04-19T03:13:36.644Z,99250.42
2018-04-19T03:14:08.255Z,99247.87
2018-04-19T03:14:39.879Z,99249.97
2018-04-19T03:15:11.513Z,99249.53
2018-04-19T03:15:43.084Z,99246.55
2018-04-19T03:16:14.669Z,99247.84
2018-04-19T03:16:46.249Z,99254.66
2018-04-19T03:17:17.839Z,99252.07
2018-04-19T03:17:49.450Z,99252.51
2018-04-19T03:18:21.068Z,99252.52
2018-04-19T03:18:52.679Z,99258.48
2018-04-19T03:19:24.303Z,99252.91
2018-04-19T03:19:55.886Z,99261.88
2018-04-19T03:20:27.559Z,99250.37
2018-04-19T03:20:59.112Z,99248.66
2018-04-19T03:21:30.694Z,99258.90
2018-04-19T03:22:02.278Z,99257.62
2018-04-19T03:22:33.889Z,99259.75
2018-04-19T03:23:05.480Z,99257.61
2018-04-19T03:23:37.062Z,99259.74
2018-04-19T03:24:08.665Z,99256.78
2018-04-19T03:24:40.237Z,99257.19
2018-04-19T03:25:11.915Z,99254.64
2018-04-19T03:25:43.531Z,99261.87
2018-04-19T03:26:15.122Z,99257.61
2018-04-19T03:26:46.706Z,99255.48
2018-04-19T03:27:18.321Z,99250.37
2018-04-19T03:27:49.945Z,99250.38
2018-04-19T03:28:21.517Z,99249.09
2018-04-19T03:28:53.098Z,99249.52
2018-04-19T03:29:24.681Z,99249.09
2018-04-19T03:29:56.261Z,99248.22
2018-04-19T03:30:27.897Z,99243.12
2018-04-19T03:30:59.519Z,99252.50
2018-04-19T03:31:31.116Z,99258.48
2018-04-19T03:32:02.730Z,99246.98
2018-04-19T03:32:34.318Z,99254.22
2018-04-19T03:33:05.936Z,99255.50
2018-04-19T03:33:37.532Z,99249.95
2018-04-19T03:34:09.138Z,99247.84
2018-04-19T03:34:40.720Z,99251.25
2018-04-19T03:35:12.302Z,99244.00
2018-04-19T03:35:43.970Z,99253.81
2018-04-19T03:36:15.568Z,99250.00
2018-04-19T03:36:47.222Z,99250.41
2018-04-19T03:37:18.885Z,99246.59
2018-04-19T03:37:50.469Z,99247.43
2018-04-19T03:38:22.040Z,99244.47
2018-04-19T03:38:53.627Z,99246.58
2018-04-19T03:39:25.238Z,99248.28
2018-04-19T03:39:56.846Z,99250.40
2018-04-19T03:40:28.454Z,99244.88
2018-04-19T03:41:00.070Z,99250.41
2018-04-19T03:41:31.644Z,99242.74
2018-04-19T03:42:03.254Z,99245.74
2018-04-19T03:42:34.882Z,99246.59
2018-04-19T03:43:06.462Z,99245.73
2018-04-19T03:43:38.057Z,99245.73
2018-04-19T03:44:09.651Z,99247.44
2018-04-19T03:44:41.242Z,99243.60
2018-04-19T03:45:12.853Z,99244.05
2018-04-19T03:45:44.442Z,99243.62
2018-04-19T03:46:16.043Z,99244.05
2018-04-19T03:46:47.696Z,99247.03
2018-04-19T03:47:19.278Z,99243.64
2018-04-19T03:47:50.882Z,99243.62
2018-04-19T03:48:22.470Z,99241.07
2018-04-19T03:48:54.077Z,99250.00
2018-04-19T03:49:25.662Z,99248.75
2018-04-19T03:49:57.236Z,99248.29
2018-04-19T03:50:28.825Z,99253.41
2018-04-19T03:51:00.426Z,99247.88
2018-04-19T03:51:32.001Z,99255.97
2018-04-19T03:52:03.586Z,99252.14
2018-04-19T03:52:35.157Z,99250.85
2018-04-19T03:53:06.762Z,99252.55
2018-04-19T03:53:38.338Z,99248.72
2018-04-19T03:54:09.926Z,99252.13
2018-04-19T03:54:41.524Z,99253.01
2018-04-19T03:55:13.124Z,99251.30
2018-04-19T03:55:44.733Z,99253.83
2018-04-19T03:56:16.350Z,99252.14
2018-04-19T03:56:47.939Z,99247.48
2018-04-19T03:57:19.575Z,99248.33
2018-04-19T03:57:51.161Z,99252.17
2018-04-19T03:58:22.744Z,99247.91
2018-04-19T03:58:54.349Z,99248.78
2018-04-19T03:59:25.939Z,99250.05
2018-04-19T03:59:57.538Z,99248.77
2018-04-19T04:00:29.126Z,99253.45
2018-04-19T04:01:00.752Z,99248.74
2018-04-19T04:01:32.314Z,99249.59
2018-04-19T04:02:03.884Z,99253.03
2018-04-19T04:02:35.520Z,99253.03
2018-04-19T04:03:07.116Z,99251.75
2018-04-19T04:03:38.703Z,99251.34
2018-04-19T04:04:10.294Z,99247.94
2018-04-19T04:04:41.898Z,99246.22
2018-04-19T04:05:13.492Z,99247.94
2018-04-19T04:05:45.078Z,99251.75
2018-04-19T04:06:16.680Z,99247.51
2018-04-19T04:06:48.300Z,99246.66
2018-04-19T04:07:19.890Z,99248.34
2018-04-19T04:07:51.514Z,99246.66
2018-04-19T04:08:23.108Z,99247.94
2018-04-19T04:08:54.720Z,99245.38
2018-04-19T04:09:26.309Z,99249.66
2018-04-19T04:09:57.920Z,99249.66
2018-04-19T04:10:29.497Z,99247.53
2018-04-19T04:11:01.103Z,99245.39
2018-04-19T04:11:33.319Z,99243.69
2018-04-19T04:12:04.916Z,99245.83
2018-04-19T04:12:36.506Z,99247.11
2018-04-19T04:13:08.105Z,99252.20
2018-04-19T04:13:39.694Z,99248.80
2018-04-19T04:14:11.327Z,99247.55
2018-04-19T04:14:42.971Z,99255.61
2018-04-19T04:15:14.570Z,99249.64
2018-04-19T04:15:46.182Z,99251.38
2018-04-19T04:16:17.780Z,99246.69
2018-04-19T04:16:49.413Z,99251.38
2018-04-19T04:17:21.002Z,99245.83
2018-04-19T04:17:52.608Z,99244.97
2018-04-19T04:18:24.261Z,99245.83
2018-04-19T04:18:55.874Z,99246.68
2018-04-19T04:19:27.464Z,99245.83
2018-04-19T04:19:59.037Z,99250.52
2018-04-19T04:20:30.649Z,99247.53
2018-04-19T04:21:02.228Z,99246.26
2018-04-19T04:21:33.834Z,99249.66
2018-04-19T04:22:05.447Z,99253.92
2018-04-19T04:22:37.025Z,99253.94
2018-04-19T04:23:08.638Z,99252.63
2018-04-19T04:23:40.236Z,99257.73
2018-04-19T04:24:11.822Z,99253.94
2018-04-19T04:24:43.447Z,99251.38
2018-04-19T04:25:15.055Z,99255.20
2018-04-19T04:25:46.667Z,99259.04
2018-04-19T04:26:18.273Z,99254.78
2018-04-19T04:26:49.857Z,99254.78
2018-04-19T04:27:21.461Z,99256.04
2018-04-19T04:27:53.084Z,99251.33
2018-04-19T04:28:24.689Z,99255.60
2018-04-19T04:28:56.278Z,99249.64
2018-04-19T04:29:27.881Z,99256.45
2018-04-19T04:29:59.456Z,99258.17
2018-04-19T04:30:31.042Z,99252.61
2018-04-19T04:31:02.631Z,99253.87
2018-04-19T04:31:34.233Z,99252.61
2018-04-19T04:32:05.842Z,99262.81
2018-04-19T04:32:37.430Z,99253.02
2018-04-19T04:33:09.067Z,99252.99
2018-04-19T04:33:40.654Z,99255.97
2018-04-19T04:34:12.262Z,99254.25
2018-04-19T04:34:43.846Z,99253.79
2018-04-19T04:35:15.460Z,99253.37
2018-04-19T04:35:47.050Z,99249.53
2018-04-19T04:36:18.641Z,99252.06
2018-04-19T04:36:50.222Z,99252.92
2018-04-19T04:37:21.806Z,99250.34
2018-04-19T04:37:53.413Z,99254.17
2018-04-19T04:38:25.028Z,99214.25
2018-04-19T04:38:56.622Z,99247.78
2018-04-19T04:39:28.226Z,99257.59
2018-04-19T04:39:59.826Z,99249.06
2018-04-19T04:40:31.433Z,99257.58
2018-04-19T04:41:03.013Z,99237.58
2018-04-19T04:41:34.622Z,99255.84
2018-04-19T04:42:06.234Z,99257.98
2018-04-19T04:42:37.841Z,99258.84
2018-04-19T04:43:09.494Z,99252.87
2018-04-19T04:43:41.082Z,99254.13
2018-04-19T04:44:12.694Z,99256.67
2018-04-19T04:44:44.282Z,99262.19
2018-04-19T04:45:15.871Z,99254.47
2018-04-19T04:45:47.454Z,99260.88
2018-04-19T04:46:19.058Z,99262.53
2018-04-19T04:46:50.686Z,99262.52
2018-04-19T04:47:22.291Z,99259.53
2018-04-19T04:47:53.967Z,99267.64
2018-04-19T04:48:25.546Z,99267.22
2018-04-19T04:48:57.147Z,99261.64
2018-04-19T04:49:28.721Z,99266.34
2018-04-19T04:50:00.322Z,99265.52
2018-04-19T04:50:31.918Z,99270.63
2018-04-19T04:51:03.514Z,99263.78
2018-04-19T04:51:35.151Z,99258.23
2018-04-19T04:52:06.725Z,99261.64
2018-04-19T04:52:38.320Z,99254.84
2018-04-19T04:53:09.925Z,99257.83
2018-04-19T04:53:41.547Z,99268.05
2018-04-19T04:54:13.133Z,99261.63
2018-04-19T04:54:44.729Z,99259.92
2018-04-19T04:55:16.342Z,99264.20
2018-04-19T04:55:47.920Z,99255.27
2018-04-19T04:56:19.524Z,99261.67
2018-04-19T04:56:51.184Z,99255.27
2018-04-19T04:57:22.780Z,99258.70
2018-04-19T04:57:54.356Z,99256.59
2018-04-19T04:58:25.932Z,99259.57
2018-04-19T04:58:57.533Z,99247.67
2018-04-19T04:59:29.124Z,99256.60
2018-04-19T05:00:00.778Z,99255.32
2018-04-19T05:00:32.374Z,99257.45
2018-04-19T05:01:03.977Z,99250.23
2018-04-19T05:01:35.625Z,99259.61
2018-04-19T05:02:07.212Z,99252.78
2018-04-19T05:02:38.798Z,99250.66
2018-04-19T05:03:10.406Z,99251.50
2018-04-19T05:03:42.014Z,99250.23
2018-04-19T05:04:13.602Z,99248.11
2018-04-19T05:04:45.186Z,99249.41
2018-04-19T05:05:16.770Z,99248.16
2018-04-19T05:05:48.397Z,99251.11
2018-04-19T05:06:20.015Z,99247.70
2018-04-19T05:06:51.613Z,99247.70
2018-04-19T05:07:23.205Z,99248.98
2018-04-19T05:07:54.792Z,99252.84
2018-04-19T05:08:26.430Z,99249.45
2018-04-19T05:08:58.004Z,99251.16
2018-04-19T05:09:29.598Z,99250.72
2018-04-19T05:10:01.197Z,99246.87
2018-04-19T05:10:32.801Z,99250.74
2018-04-19T05:11:04.405Z,99252.45
2018-04-19T05:11:35.997Z,99249.47
2018-04-19T05:12:07.588Z,99256.70
2018-04-19T05:12:39.176Z,99255.00
2018-04-19T05:13:10.830Z,99251.59
2018-04-19T05:13:42.416Z,99256.73
2018-04-19T05:14:14.026Z,99256.72
2018-04-19T05:14:45.604Z,99255.02
2018-04-19T05:15:17.205Z,99252.91
2018-04-19T05:15:48.810Z,99260.14
2018-04-19T05:16:20.398Z,99255.45
2018-04-19T05:16:52.002Z,99254.17
2018-04-19T05:17:23.590Z,99254.17
2018-04-19T05:17:55.175Z,99260.59
2018-04-19T05:18:26.798Z,99264.42
2018-04-19T05:18:58.375Z,99255.06
2018-04-19T05:19:29.979Z,99258.05
2018-04-19T05:20:01.570Z,99253.37
2018-04-19T05:20:33.182Z,99258.49
2018-04-19T05:21:04.794Z,99255.51
2018-04-19T05:21:36.549Z,99259.33
2018-04-19T05:22:08.116Z,99258.06
2018-04-19T05:22:39.693Z,99257.64
2018-04-19T05:23:11.266Z,99261.91
2018-04-19T05:23:42.855Z,99258.89
2018-04-19T05:24:14.442Z,99254.23
2018-04-19T05:24:46.051Z,99257.22
2018-04-19T05:25:17.634Z,99250.37
2018-04-19T05:25:49.221Z,99255.08
2018-04-19T05:26:20.822Z,99258.48
2018-04-19T05:26:52.420Z,99252.52
2018-04-19T05:27:24.030Z,99254.23
2018-04-19T05:27:55.640Z,99262.33
2018-04-19T05:28:27.250Z,99254.65
2018-04-19T05:28:58.861Z,99260.19
2018-04-19T05:29:30.453Z,99258.91
2018-04-19T05:30:02.075Z,99250.40
2018-04-19T05:30:33.677Z,99252.08
2018-04-19T05:31:05.262Z,99258.83
2018-04-19T05:31:36.871Z,99255.42
2018-04-19T05:32:08.526Z,99255.11
2018-04-19T05:32:40.115Z,99253.97
2018-04-19T05:33:11.721Z,99254.85
2018-04-19T05:33:43.329Z,99252.77
2018-04-19T05:34:14.932Z,99256.20
2018-04-19T05:34:46.532Z,99251.56
2018-04-19T05:35:18.118Z,99250.23
2018-04-19T05:35:49.721Z,99253.63
2018-04-19T05:36:21.350Z,99256.59
2018-04-19T05:36:52.953Z,99251.45
2018-04-19T05:37:24.534Z,99258.20
2018-04-19T05:37:56.137Z,99256.11
2018-04-19T05:38:27.805Z,99251.45
2018-04-19T05:38:59.422Z,99253.17
2018-04-19T05:39:31.020Z,99251.94
2018-04-19T05:40:02.612Z,99248.95
2018-04-19T05:40:34.192Z,99251.10
2018-04-19T05:41:05.820Z,99254.10
2018-04-19T05:41:37.427Z,99254.09
2018-04-19T05:42:09.034Z,99257.91
2018-04-19T05:42:40.622Z,99252.81
2018-04-19T05:43:12.203Z,99254.09
2018-04-19T05:43:43.796Z,99261.74
2018-04-19T05:44:15.376Z,99257.47
2018-04-19T05:44:47.000Z,99256.63
2018-04-19T05:45:18.645Z,99260.02
2018-04-19T05:45:50.230Z,99255.34
2018-04-19T05:46:21.839Z,99259.14
2018-04-19T05:46:53.425Z,99261.72
2018-04-19T05:47:25.016Z,99255.75
2018-04-19T05:47:56.634Z,99255.72
2018-04-19T05:48:28.290Z,99252.77
2018-04-19T05:48:59.902Z,99255.30
2018-04-19T05:49:31.494Z,99259.11
2018-04-19T05:50:03.074Z,99252.31
2018-04-19T05:50:34.644Z,99259.14
2018-04-19T05:51:06.266Z,99261.25
2018-04-19T05:51:37.850Z,99264.64
2018-04-19T05:52:09.450Z,99260.83
2018-04-19T05:52:41.024Z,99238.70
2018-04-19T05:53:12.611Z,99263.35
2018-04-19T05:53:44.208Z,99265.06
2018-04-19T05:54:15.797Z,99261.25
2018-04-19T05:54:47.414Z,99259.53
2018-04-19T05:55:19.061Z,99264.21
2018-04-19T05:55:50.640Z,99258.69
2018-04-19T05:56:22.231Z,99259.08
2018-04-19T05:56:53.818Z,99262.92
2018-04-19T05:57:25.414Z,99259.94
2018-04-19T05:57:57.017Z,99259.50
2018-04-19T05:58:28.602Z,99262.04
2018-04-19T05:59:00.188Z,99262.47
2018-04-19T05:59:31.760Z,99265.44
2018-04-19T06:00:03.400Z,99267.58
2018-04-19T06:00:35.066Z,99265.41
2018-04-19T06:01:06.670Z,99259.04
2018-04-19T06:01:38.269Z,99267.98
2018-04-19T06:02:09.864Z,99264.14
2018-04-19T06:02:41.449Z,99262.86
2018-04-19T06:03:13.020Z,99264.95
2018-04-19T06:03:44.612Z,99259.44
2018-04-19T06:04:16.198Z,99259.41
2018-04-19T06:04:47.786Z,99260.25
2018-04-19T06:05:19.370Z,99262.83
2018-04-19T06:05:51.030Z,99260.25
2018-04-19T06:06:22.634Z,99261.10
2018-04-19T06:06:54.246Z,99266.65
2018-04-19T06:07:25.854Z,99261.96
2018-04-19T06:07:57.443Z,99265.80
2018-04-19T06:08:29.010Z,99258.97
2018-04-19T06:09:00.633Z,99267.05
2018-04-19T06:09:32.237Z,99270.02
2018-04-19T06:10:03.846Z,99269.16
2018-04-19T06:10:35.430Z,99266.59
2018-04-19T06:11:07.058Z,99267.42